createdAt,value
2023-05-19T00:00:19.050Z,99240.91
2023-05-19T00:03:26.298Z,99237.67
2023-05-19T00:06:27.746Z,99241.96
2023-05-19T00:09:27.643Z,99237.83
2023-05-19T00:12:34.826Z,99239.32
2023-05-19T00:15:35.496Z,99233.44
2023-05-19T00:18:35.186Z,99230.77
2023-05-19T00:21:34.977Z,99229.87
2023-05-19T00:24:33.690Z,99228.91
2023-05-19T00:27:33.469Z,99221.19
2023-05-19T00:30:33.345Z,99221.90
2023-05-19T00:33:35.422Z,99223.17
2023-05-19T00:36:42.585Z,99226.04
2023-05-19T00:39:42.385Z,99223.14
2023-05-19T00:42:50.437Z,99221.58
2023-05-19T00:45:50.912Z,99226.42
2023-05-19T00:48:49.631Z,99216.05
2023-05-19T00:51:49.606Z,99215.14
2023-05-19T00:54:56.665Z,99213.26
2023-05-19T00:57:56.439Z,99213.98
2023-05-19T01:01:04.210Z,99215.86
2023-05-19T01:04:07.277Z,99218.22
2023-05-19T01:07:17.128Z,99223.67
2023-05-19T01:10:16.504Z,99225.83
2023-05-19T01:13:15.535Z,99227.98
2023-05-19T01:16:15.363Z,99225.20
2023-05-19T01:19:10.270Z,99222.52
2023-05-19T01:22:12.174Z,99221.08
2023-05-19T01:25:04.760Z,99217.13
2023-05-19T01:28:05.593Z,99211.56
2023-05-19T01:31:13.564Z,99209.85
2023-05-19T01:34:13.346Z,99204.17
2023-05-19T01:37:12.046Z,99208.30
2023-05-19T01:40:10.861Z,99207.11
2023-05-19T01:43:13.192Z,99213.56
2023-05-19T01:46:15.665Z,99208.36
2023-05-19T01:49:15.440Z,99206.43
2023-05-19T01:52:15.194Z,99206.05
2023-05-19T01:55:21.276Z,99206.80
2023-05-19T01:58:24.394Z,99207.11
2023-05-19T02:01:07.902Z,99203.91
2023-05-19T02:04:08.803Z,99203.97
2023-05-19T02:06:53.329Z,99203.34
2023-05-19T02:09:54.131Z,99197.29
2023-05-19T02:12:52.862Z,99199.70
2023-05-19T02:15:55.424Z,99196.23
2023-05-19T02:18:55.263Z,99193.15
2023-05-19T02:21:55.680Z,99189.98
2023-05-19T02:24:57.899Z,99190.48
2023-05-19T02:27:58.202Z,99185.77
2023-05-19T02:30:57.518Z,99188.67
2023-05-19T02:33:57.249Z,99186.11
2023-05-19T02:37:02.525Z,99187.20
2023-05-19T02:40:02.335Z,99183.46
2023-05-19T02:43:01.072Z,99182.95
2023-05-19T02:45:59.825Z,99181.19
2023-05-19T02:49:06.978Z,99184.56
2023-05-19T02:52:06.113Z,99188.58
2023-05-19T02:55:04.783Z,99189.02
2023-05-19T02:58:03.610Z,99187.57
2023-05-19T03:01:02.300Z,99189.11
2023-05-19T03:04:09.598Z,99190.55
2023-05-19T03:07:09.316Z,99190.84
2023-05-19T03:10:19.583Z,99188.68
2023-05-19T03:13:09.932Z,99186.74
2023-05-19T03:16:08.696Z,99188.95
2023-05-19T03:19:08.731Z,99186.31
2023-05-19T03:22:08.050Z,99188.65
2023-05-19T03:25:06.759Z,99190.56
2023-05-19T03:28:13.968Z,99193.02
2023-05-19T03:31:13.701Z,99186.33
2023-05-19T03:34:16.682Z,99184.81
2023-05-19T03:37:16.431Z,99186.89
2023-05-19T03:40:15.950Z,99186.80
2023-05-19T03:43:15.123Z,99189.41
2023-05-19T03:46:22.397Z,99180.88
2023-05-19T03:49:17.722Z,99187.18
2023-05-19T03:52:17.533Z,99193.44
2023-05-19T03:55:17.238Z,99192.88
2023-05-19T03:58:16.041Z,99191.77
2023-05-19T04:01:14.787Z,99196.61
2023-05-19T04:04:13.887Z,99198.24
2023-05-19T04:07:21.006Z,99198.79
2023-05-19T04:10:20.755Z,99200.81
2023-05-19T04:13:19.572Z,99198.24
2023-05-19T04:16:22.787Z,99202.70
2023-05-19T04:19:22.183Z,99200.30
2023-05-19T04:22:22.327Z,99202.00
2023-05-19T04:25:27.966Z,99203.88
2023-05-19T04:28:26.682Z,99205.45
2023-05-19T04:31:27.018Z,99202.52
2023-05-19T04:34:25.784Z,99196.77
2023-05-19T04:37:30.630Z,99193.78
2023-05-19T04:40:36.850Z,99197.15
2023-05-19T04:43:35.575Z,99195.05
2023-05-19T04:46:35.309Z,99196.79
2023-05-19T04:49:34.048Z,99195.07
2023-05-19T04:52:33.164Z,99194.38
2023-05-19T04:55:40.331Z,99191.54
2023-05-19T04:58:47.366Z,99188.75
2023-05-19T05:01:46.754Z,99188.67
2023-05-19T05:04:38.205Z,99191.73
2023-05-19T05:07:37.023Z,99197.41
2023-05-19T05:10:44.287Z,99195.41
2023-05-19T05:13:44.074Z,99194.52
2023-05-19T05:16:43.260Z,99194.83
2023-05-19T05:19:47.512Z,99198.92
2023-05-19T05:22:54.757Z,99193.27
2023-05-19T05:25:54.217Z,99196.88
2023-05-19T05:28:52.917Z,99199.90
2023-05-19T05:31:51.912Z,99203.76
2023-05-19T05:34:59.119Z,99205.05
2023-05-19T05:37:58.584Z,99207.09
2023-05-19T05:40:50.206Z,99210.53
2023-05-19T05:43:57.049Z,99207.91
2023-05-19T05:46:55.716Z,99213.83
2023-05-19T05:49:55.465Z,99213.20
2023-05-19T05:52:56.489Z,99212.40
2023-05-19T05:55:56.430Z,99216.79
2023-05-19T05:58:56.220Z,99218.10
2023-05-19T06:02:03.635Z,99216.02
2023-05-19T06:05:03.469Z,99216.86
2023-05-19T06:08:03.325Z,99220.20
2023-05-19T06:11:03.214Z,99220.77
2023-05-19T06:13:54.999Z,99226.45
2023-05-19T06:17:02.156Z,99229.91
2023-05-19T06:20:01.664Z,99232.52
2023-05-19T06:23:01.503Z,99234.33
2023-05-19T06:26:01.437Z,99234.34
2023-05-19T06:29:00.111Z,99236.69
2023-05-19T06:32:08.310Z,99246.39
2023-05-19T06:35:15.627Z,99245.04
2023-05-19T06:38:16.106Z,99246.34
2023-05-19T06:41:07.515Z,99244.52
2023-05-19T06:44:17.112Z,99243.66
2023-05-19T06:47:16.179Z,99245.19
2023-05-19T06:50:16.299Z,99238.52
2023-05-19T06:53:16.014Z,99241.99
2023-05-19T06:56:14.872Z,99237.05
2023-05-19T06:59:14.407Z,99240.76
2023-05-19T07:02:21.846Z,99241.58
2023-05-19T07:05:27.783Z,99239.58
2023-05-19T07:08:27.020Z,99234.22
2023-05-19T07:11:27.096Z,99236.46
2023-05-19T07:14:26.172Z,99238.79
2023-05-19T07:17:25.070Z,99237.73
2023-05-19T07:20:23.976Z,99232.34
2023-05-19T07:23:22.685Z,99233.92
2023-05-19T07:26:21.473Z,99235.41
2023-05-19T07:29:20.422Z,99232.95
2023-05-19T07:32:19.598Z,99235.96
2023-05-19T07:35:19.351Z,99238.80
2023-05-19T07:38:26.501Z,99234.94
2023-05-19T07:41:26.319Z,99234.05
2023-05-19T07:44:25.383Z,99226.95
2023-05-19T07:47:25.688Z,99232.64
2023-05-19T07:50:24.555Z,99234.11
2023-05-19T07:53:24.582Z,99232.84
2023-05-19T07:56:21.839Z,99231.54
2023-05-19T07:59:20.666Z,99233.47
2023-05-19T08:02:20.614Z,99232.29
2023-05-19T08:05:20.362Z,99233.15
2023-05-19T08:08:12.233Z,99234.64
2023-05-19T08:11:11.018Z,99235.18
2023-05-19T08:14:10.084Z,99236.95
2023-05-19T08:17:08.857Z,99227.58
2023-05-19T08:20:19.554Z,99228.05
2023-05-19T08:23:18.368Z,99227.93
2023-05-19T08:26:17.461Z,99224.98
2023-05-19T08:29:19.180Z,99226.78
2023-05-19T08:32:18.051Z,99229.55
2023-05-19T08:35:18.625Z,99227.27
2023-05-19T08:38:18.333Z,99231.24
2023-05-19T08:41:19.654Z,99233.38
2023-05-19T08:44:20.430Z,99233.96
2023-05-19T08:47:21.691Z,99238.94
2023-05-19T08:50:21.569Z,99238.11
2023-05-19T08:53:31.785Z,99239.89
2023-05-19T08:56:34.238Z,99245.23
2023-05-19T08:59:32.960Z,99243.34
2023-05-19T09:02:31.847Z,99247.57
2023-05-19T09:05:30.999Z,99248.27
2023-05-19T09:08:29.792Z,99249.17
2023-05-19T09:11:28.518Z,99249.45
2023-05-19T09:14:28.204Z,99249.98
2023-05-19T09:17:31.275Z,99248.23
2023-05-19T09:20:39.646Z,99248.38
2023-05-19T09:23:45.826Z,99246.88
2023-05-19T09:26:44.756Z,99249.86
2023-05-19T09:29:45.359Z,99255.60
2023-05-19T09:36:00.219Z,99252.00
2023-05-19T09:38:59.004Z,99256.09
2023-05-19T09:41:57.835Z,99257.48
2023-05-19T09:44:56.561Z,99255.48
2023-05-19T09:47:55.709Z,99251.46
2023-05-19T09:50:56.273Z,99250.14
2023-05-19T09:53:46.744Z,99248.21
2023-05-19T09:56:46.987Z,99251.01
2023-05-19T09:59:46.344Z,99247.23
2023-05-19T10:02:37.163Z,99249.63
2023-05-19T10:05:36.174Z,99250.33
2023-05-19T10:08:35.184Z,99248.41
2023-05-19T10:11:34.471Z,99251.77
2023-05-19T10:14:34.976Z,99252.56
2023-05-19T10:17:33.803Z,99254.23
2023-05-19T10:20:32.901Z,99250.30
2023-05-19T10:23:32.940Z,99248.73
2023-05-19T10:26:40.262Z,99251.55
2023-05-19T10:29:47.583Z,99243.70
2023-05-19T10:32:54.958Z,99244.97
2023-05-19T10:35:49.643Z,99240.95
2023-05-19T10:38:50.534Z,99243.17
2023-05-19T10:41:46.925Z,99242.63
2023-05-19T10:44:40.835Z,99241.17
2023-05-19T10:47:39.565Z,99243.89
2023-05-19T10:50:39.705Z,99242.74
2023-05-19T10:53:39.708Z,99244.20
2023-05-19T10:56:39.459Z,99241.25
2023-05-19T10:59:39.541Z,99239.69
2023-05-19T11:02:38.831Z,99243.56
2023-05-19T11:05:32.434Z,99241.23
2023-05-19T11:08:31.877Z,99244.17
2023-05-19T11:11:31.477Z,99242.96
2023-05-19T11:14:39.483Z,99242.06
2023-05-19T11:17:46.586Z,99244.05
2023-05-19T11:20:40.241Z,99240.61
2023-05-19T11:23:29.052Z,99244.27
2023-05-19T11:26:36.401Z,99239.49
2023-05-19T11:29:35.458Z,99239.80
2023-05-19T11:32:35.383Z,99241.50
2023-05-19T11:35:27.414Z,99244.25
2023-05-19T11:38:30.674Z,99244.70
2023-05-19T11:41:31.884Z,99243.94
2023-05-19T11:44:30.566Z,99245.61
2023-05-19T11:47:38.738Z,99247.30
2023-05-19T11:50:45.979Z,99250.31
2023-05-19T11:53:53.177Z,99252.15
2023-05-19T11:56:51.830Z,99253.30
2023-05-19T11:59:50.736Z,99257.28
2023-05-19T12:02:38.383Z,99253.69
2023-05-19T12:05:42.022Z,99252.16
2023-05-19T12:08:50.715Z,99255.08
2023-05-19T12:11:51.075Z,99250.05
2023-05-19T12:14:58.126Z,99250.20
2023-05-19T12:18:05.635Z,99250.73
2023-05-19T12:21:04.533Z,99247.52
2023-05-19T12:24:04.439Z,99251.21
2023-05-19T12:27:11.492Z,99250.55
2023-05-19T12:30:11.525Z,99245.16
2023-05-19T12:33:18.623Z,99239.80
2023-05-19T12:36:18.424Z,99243.16
2023-05-19T12:39:19.407Z,99244.98
2023-05-19T12:42:25.802Z,99240.11
2023-05-19T12:45:24.510Z,99235.23
2023-05-19T12:48:24.282Z,99235.90
2023-05-19T12:51:34.182Z,99237.23
2023-05-19T12:54:34.020Z,99235.79
2023-05-19T12:57:41.124Z,99233.87
2023-05-19T13:00:33.231Z,99232.95
2023-05-19T13:03:17.906Z,99232.54
2023-05-19T13:06:17.131Z,99237.23
2023-05-19T13:09:16.940Z,99237.61
2023-05-19T13:12:16.573Z,99234.92
2023-05-19T13:15:16.038Z,99231.50
2023-05-19T13:18:14.777Z,99225.65
2023-05-19T13:21:22.433Z,99223.92
2023-05-19T13:24:21.189Z,99224.15
2023-05-19T13:27:20.177Z,99220.12
2023-05-19T13:30:18.921Z,99218.53
2023-05-19T13:33:17.671Z,99226.34
2023-05-19T13:36:17.461Z,99221.91
2023-05-19T13:39:17.668Z,99224.39
2023-05-19T13:42:17.411Z,99223.67
2023-05-19T13:45:17.468Z,99220.88
2023-05-19T13:48:10.366Z,99222.52
2023-05-19T13:51:09.685Z,99223.34
2023-05-19T13:54:05.427Z,99227.91
2023-05-19T13:57:04.404Z,99220.58
2023-05-19T14:00:04.023Z,99220.13
2023-05-19T14:03:03.844Z,99220.80
2023-05-19T14:06:02.576Z,99224.39
2023-05-19T14:09:03.859Z,99230.70
2023-05-19T14:12:11.101Z,99230.11
2023-05-19T14:15:11.617Z,99230.84
2023-05-19T14:18:11.476Z,99228.68
2023-05-19T14:21:10.227Z,99234.39
2023-05-19T14:24:08.884Z,99231.98
2023-05-19T14:27:02.074Z,99228.22
2023-05-19T14:30:00.982Z,99225.42
2023-05-19T14:32:54.668Z,99224.26
2023-05-19T14:35:54.289Z,99228.52
2023-05-19T14:38:53.025Z,99224.61
2023-05-19T14:41:45.411Z,99221.38
2023-05-19T14:44:47.183Z,99222.96
2023-05-19T14:47:47.069Z,99230.48
2023-05-19T14:50:46.427Z,99236.41
2023-05-19T14:53:45.168Z,99233.69
2023-05-19T14:56:43.876Z,99232.96
2023-05-19T14:59:43.100Z,99236.58
2023-05-19T15:02:42.855Z,99230.52
2023-05-19T15:05:41.599Z,99239.13
2023-05-19T15:08:41.331Z,99235.39
2023-05-19T15:11:42.235Z,99239.55
2023-05-19T15:14:40.957Z,99240.65
2023-05-19T15:17:39.720Z,99236.01
2023-05-19T15:20:38.643Z,99237.17
2023-05-19T15:23:38.417Z,99240.63
2023-05-19T15:26:38.196Z,99241.20
2023-05-19T15:29:37.120Z,99241.63
2023-05-19T15:32:29.773Z,99237.30
2023-05-19T15:35:28.580Z,99236.70
2023-05-19T15:38:30.008Z,99233.62
2023-05-19T15:41:33.521Z,99235.89
2023-05-19T15:44:32.797Z,99243.14
2023-05-19T15:47:31.715Z,99243.61
2023-05-19T15:50:31.402Z,99240.70
2023-05-19T15:53:31.298Z,99242.11
2023-05-19T15:56:31.017Z,99243.70
2023-05-19T15:59:38.141Z,99248.56
2023-05-19T16:02:36.962Z,99249.25
2023-05-19T16:05:35.765Z,99250.52
2023-05-19T16:08:34.492Z,99246.11
2023-05-19T16:11:34.253Z,99244.02
2023-05-19T16:14:24.627Z,99247.01
2023-05-19T16:17:24.474Z,99254.64
2023-05-19T16:20:23.303Z,99251.34
2023-05-19T16:23:22.625Z,99248.98
2023-05-19T16:26:22.364Z,99245.82
2023-05-19T16:29:21.129Z,99240.59
2023-05-19T16:32:20.033Z,99238.35
2023-05-19T16:35:22.220Z,99240.64
2023-05-19T16:38:29.453Z,99240.29
2023-05-19T16:41:30.184Z,99245.46
2023-05-19T16:44:30.401Z,99241.95
2023-05-19T16:47:29.140Z,99241.36
2023-05-19T16:50:27.974Z,99240.79
2023-05-19T16:53:26.658Z,99237.08
2023-05-19T16:56:28.460Z,99233.34
2023-05-19T16:59:28.156Z,99230.77
2023-05-19T17:02:26.957Z,99237.70
2023-05-19T17:05:31.528Z,99239.16
2023-05-19T17:08:31.303Z,99240.34
2023-05-19T17:11:30.068Z,99243.11
2023-05-19T17:14:28.848Z,99248.68
2023-05-19T17:17:27.577Z,99258.24
2023-05-19T17:20:34.974Z,99260.70
2023-05-19T17:23:42.217Z,99260.58
2023-05-19T17:26:43.723Z,99263.98
2023-05-19T17:29:43.483Z,99268.82
2023-05-19T17:32:50.653Z,99265.29
2023-05-19T17:35:42.262Z,99261.95
2023-05-19T17:38:41.642Z,99263.04
2023-05-19T17:41:41.857Z,99261.39
2023-05-19T17:44:41.576Z,99267.45
2023-05-19T17:47:41.876Z,99270.91
2023-05-19T17:50:43.272Z,99270.75
2023-05-19T17:53:42.022Z,99266.34
2023-05-19T17:56:40.962Z,99263.95
2023-05-19T17:59:48.089Z,99263.96
2023-05-19T18:02:40.759Z,99266.42
2023-05-19T18:05:39.625Z,99264.80
2023-05-19T18:08:39.793Z,99271.89
2023-05-19T18:11:39.096Z,99274.36
2023-05-19T18:14:38.055Z,99273.61
2023-05-19T18:17:36.903Z,99274.84
2023-05-19T18:20:36.029Z,99278.23
2023-05-19T18:23:34.829Z,99275.69
2023-05-19T18:26:33.587Z,99279.94
2023-05-19T18:29:32.963Z,99282.68
2023-05-19T18:32:31.829Z,99284.63
2023-05-19T18:35:31.616Z,99283.23
2023-05-19T18:38:31.357Z,99283.71
2023-05-19T18:41:31.500Z,99285.52
2023-05-19T18:44:31.740Z,99286.20
2023-05-19T18:47:41.886Z,99282.66
2023-05-19T18:50:41.826Z,99285.90
2023-05-19T18:53:48.929Z,99287.15
2023-05-19T18:56:48.837Z,99288.69
2023-05-19T18:59:42.339Z,99288.09
2023-05-19T19:02:41.073Z,99285.85
2023-05-19T19:05:48.289Z,99289.13
2023-05-19T19:08:47.056Z,99293.15
2023-05-19T19:11:47.494Z,99291.91
2023-05-19T19:14:52.158Z,99297.09
2023-05-19T19:17:53.952Z,99303.23
2023-05-19T19:20:52.661Z,99301.34
2023-05-19T19:23:54.571Z,99300.97
2023-05-19T19:26:53.501Z,99305.91
2023-05-19T19:29:53.274Z,99304.56
2023-05-19T19:32:53.088Z,99304.64
2023-05-19T19:35:54.617Z,99304.30
2023-05-19T19:38:46.451Z,99309.20
2023-05-19T19:41:46.672Z,99307.06
2023-05-19T19:44:46.596Z,99309.58
2023-05-19T19:47:37.072Z,99309.66
2023-05-19T19:50:34.467Z,99313.05
2023-05-19T19:53:34.745Z,99311.02
2023-05-19T19:56:33.712Z,99314.80
2023-05-19T19:59:32.519Z,99310.89
2023-05-19T20:02:31.314Z,99306.44
2023-05-19T20:05:30.667Z,99303.88
2023-05-19T20:08:30.637Z,99304.38
2023-05-19T20:11:22.905Z,99303.23
2023-05-19T20:14:22.754Z,99297.20
2023-05-19T20:17:21.827Z,99298.17
2023-05-19T20:20:20.632Z,99296.90
2023-05-19T20:23:20.460Z,99292.88
2023-05-19T20:26:20.225Z,99291.23
2023-05-19T20:29:22.678Z,99295.02
2023-05-19T20:32:22.683Z,99299.48
2023-05-19T20:35:23.389Z,99301.33
2023-05-19T20:38:23.156Z,99300.00
2023-05-19T20:41:23.534Z,99300.24
2023-05-19T20:44:22.292Z,99305.02
2023-05-19T20:47:21.114Z,99302.63
2023-05-19T20:50:19.829Z,99297.90
2023-05-19T20:53:18.579Z,99295.50
2023-05-19T20:56:19.239Z,99293.72
2023-05-19T20:59:18.961Z,99292.23
2023-05-19T21:02:17.776Z,99293.43
2023-05-19T21:05:24.899Z,99292.42
2023-05-19T21:08:23.674Z,99292.86
2023-05-19T21:11:22.663Z,99293.30
2023-05-19T21:14:26.110Z,99292.03
2023-05-19T21:17:16.548Z,99287.13
2023-05-19T21:20:14.486Z,99284.16
2023-05-19T21:23:14.474Z,99286.20
2023-05-19T21:26:14.187Z,99287.00
2023-05-19T21:29:13.007Z,99287.82
2023-05-19T21:32:11.974Z,99290.33
2023-05-19T21:35:10.782Z,99289.52
2023-05-19T21:38:23.938Z,99292.62
2023-05-19T21:41:31.507Z,99290.86
2023-05-19T21:44:30.465Z,99294.27
2023-05-19T21:47:34.507Z,99294.29
2023-05-19T21:50:34.535Z,99296.36
2023-05-19T21:53:33.448Z,99293.98
2023-05-19T21:56:33.149Z,99300.09
2023-05-19T21:59:31.906Z,99296.33
2023-05-19T22:02:31.201Z,99294.02
2023-05-19T22:05:30.200Z,99294.85
2023-05-19T22:08:30.061Z,99297.02
2023-05-19T22:11:29.143Z,99295.16
2023-05-19T22:14:27.879Z,99296.38
2023-05-19T22:17:26.742Z,99291.41
2023-05-19T22:20:25.487Z,99288.88
2023-05-19T22:23:28.472Z,99291.38
2023-05-19T22:26:29.366Z,99285.20
2023-05-19T22:29:29.140Z,99289.10
2023-05-19T22:32:27.950Z,99292.02
2023-05-19T22:35:35.330Z,99292.54
2023-05-19T22:38:25.661Z,99288.26
2023-05-19T22:41:25.968Z,99284.58
2023-05-19T22:44:24.705Z,99280.49
2023-05-19T22:47:32.116Z,99275.58
2023-05-19T22:50:31.904Z,99276.23
2023-05-19T22:53:39.014Z,99270.39
2023-05-19T22:56:37.976Z,99266.41
2023-05-19T22:59:36.974Z,99266.25
2023-05-19T23:02:35.720Z,99262.23
2023-05-19T23:05:27.701Z,99265.09
2023-05-19T23:08:29.877Z,99257.85
2023-05-19T23:11:28.928Z,99253.95
2023-05-19T23:14:27.708Z,99247.45
2023-05-19T23:17:26.907Z,99245.24
2023-05-19T23:20:21.644Z,99242.68
2023-05-19T23:23:22.283Z,99237.80
2023-05-19T23:26:21.013Z,99241.66
2023-05-19T23:29:20.082Z,99240.97
2023-05-19T23:32:18.857Z,99238.21
2023-05-19T23:35:17.716Z,99236.08
2023-05-19T23:38:17.466Z,99235.63
2023-05-19T23:41:17.220Z,99233.33
2023-05-19T23:44:15.700Z,99238.64
2023-05-19T23:47:19.327Z,99234.74
2023-05-19T23:50:10.068Z,99241.83
2023-05-19T23:53:08.831Z,99238.86
2023-05-19T23:56:08.109Z,99236.21
2023-05-19T23:59:07.144Z,99236.66
